Plum Island, Massachusetts
Current Conditions -  °F | °C
As of 5:54 PM on Saturday 25 Oct 2014 (Local Time) from KLWM Reporting Station
Clear Clear  
Wind Chill: 58°   Ceiling: Unl
Heat Index: 58°   Visibility: 10mi
Dew Point: 41°   Wind: 8mph
Humidity: 53%   Direction: 250°WSW
Pressure: 29.6"   Gusts: NA
Location:  42.7802°N, 70.8638°W
Report Text: KLWM 252154Z 25007KT 10SM CLR 14/05 A2960 RMK AO2 SLP023 T01440050
Loading
Personal Weather Stations






























Interactive Weather Map
Tropical Storm Tracking
New forecast layout! Learn more

10-Day Weather Forecast

Advertisements
Track Severe Weather on mobile